sensor_id;sensor_type;location;lat;lon;timestamp;P1;durP1;ratioP1;P2;durP2;ratioP2
215;SDS011;70668;48.81286795;9.14184224;2023-08-06T00:00:10;13.17;;;8.90;;
215;SDS011;70668;48.81286795;9.14184224;2023-08-06T00:02:40;11.87;;;8.60;;
215;SDS011;70668;48.81286795;9.14184224;2023-08-06T00:05:09;13.50;;;9.37;;
215;SDS011;70668;48.81286795;9.14184224;2023-08-06T00:07:37;13.13;;;9.63;;
215;SDS011;70668;48.81286795;9.14184224;2023-08-06T00:10:06;13.77;;;9.97;;
215;SDS011;70668;48.81286795;9.14184224;2023-08-06T00:12:35;14.77;;;10.10;;
215;SDS011;70668;48.81286795;9.14184224;2023-08-06T00:15:06;14.37;;;9.10;;
215;SDS011;70668;48.81286795;9.14184224;2023-08-06T00:17:36;11.73;;;8.87;;
215;SDS011;70668;48.81286795;9.14184224;2023-08-06T00:20:05;10.47;;;8.33;;
215;SDS011;70668;48.81286795;9.14184224;2023-08-06T00:22:35;13.30;;;9.27;;
215;SDS011;70668;48.81286795;9.14184224;2023-08-06T00:25:05;13.53;;;8.23;;
215;SDS011;70668;48.81286795;9.14184224;2023-08-06T00:27:34;10.07;;;6.73;;
215;SDS011;70668;48.81286795;9.14184224;2023-08-06T00:30:06;9.93;;;6.90;;
215;SDS011;70668;48.81286795;9.14184224;2023-08-06T00:32:35;11.00;;;6.40;;
215;SDS011;70668;48.81286795;9.14184224;2023-08-06T00:35:04;8.13;;;5.90;;
215;SDS011;70668;48.81286795;9.14184224;2023-08-06T00:37:33;11.60;;;6.10;;
215;SDS011;70668;48.81286795;9.14184224;2023-08-06T00:40:02;8.10;;;5.83;;
215;SDS011;70668;48.81286795;9.14184224;2023-08-06T00:42:30;13.50;;;6.10;;
215;SDS011;70668;48.81286795;9.14184224;2023-08-06T00:45:00;8.00;;;5.30;;
215;SDS011;70668;48.81286795;9.14184224;2023-08-06T00:47:30;11.93;;;5.30;;
215;SDS011;70668;48.81286795;9.14184224;2023-08-06T00:49:59;11.10;;;5.60;;
215;SDS011;70668;48.81286795;9.14184224;2023-08-06T00:52:27;7.80;;;5.43;;
215;SDS011;70668;48.81286795;9.14184224;2023-08-06T00:54:56;7.63;;;5.53;;
215;SDS011;70668;48.81286795;9.14184224;2023-08-06T00:57:24;8.10;;;5.60;;
215;SDS011;70668;48.81286795;9.14184224;2023-08-06T00:59:53;10.10;;;5.27;;
215;SDS011;70668;48.81286795;9.14184224;2023-08-06T01:02:22;7.23;;;5.33;;
215;SDS011;70668;48.81286795;9.14184224;2023-08-06T01:04:53;8.37;;;5.53;;
215;SDS011;70668;48.81286795;9.14184224;2023-08-06T01:07:26;8.17;;;5.90;;
215;SDS011;70668;48.81286795;9.14184224;2023-08-06T01:10:07;11.37;;;5.40;;
215;SDS011;70668;48.81286795;9.14184224;2023-08-06T01:12:45;8.63;;;5.63;;
215;SDS011;70668;48.81286795;9.14184224;2023-08-06T01:15:18;7.00;;;5.70;;
215;SDS011;70668;48.81286795;9.14184224;2023-08-06T01:17:49;7.80;;;5.57;;
215;SDS011;70668;48.81286795;9.14184224;2023-08-06T01:20:20;7.60;;;5.10;;
215;SDS011;70668;48.81286795;9.14184224;2023-08-06T01:22:51;11.80;;;5.80;;
215;SDS011;70668;48.81286795;9.14184224;2023-08-06T01:25:20;7.57;;;5.40;;
215;SDS011;70668;48.81286795;9.14184224;2023-08-06T01:27:49;7.70;;;5.47;;
215;SDS011;70668;48.81286795;9.14184224;2023-08-06T01:30:18;8.20;;;5.40;;
215;SDS011;70668;48.81286795;9.14184224;2023-08-06T01:32:49;8.17;;;5.40;;
215;SDS011;70668;48.81286795;9.14184224;2023-08-06T01:35:19;6.53;;;5.03;;
215;SDS011;70668;48.81286795;9.14184224;2023-08-06T01:37:47;11.17;;;5.37;;
215;SDS011;70668;48.81286795;9.14184224;2023-08-06T01:40:18;9.13;;;5.10;;
215;SDS011;70668;48.81286795;9.14184224;2023-08-06T01:42:47;7.37;;;5.27;;
215;SDS011;70668;48.81286795;9.14184224;2023-08-06T01:45:15;10.10;;;5.70;;
215;SDS011;70668;48.81286795;9.14184224;2023-08-06T01:47:44;10.27;;;5.73;;
215;SDS011;70668;48.81286795;9.14184224;2023-08-06T01:50:12;13.43;;;5.70;;
215;SDS011;70668;48.81286795;9.14184224;2023-08-06T01:52:40;7.10;;;5.03;;
215;SDS011;70668;48.81286795;9.14184224;2023-08-06T01:55:09;7.93;;;5.47;;
215;SDS011;70668;48.81286795;9.14184224;2023-08-06T01:57:40;7.73;;;4.73;;
215;SDS011;70668;48.81286795;9.14184224;2023-08-06T02:00:08;9.50;;;5.10;;
215;SDS011;70668;48.81286795;9.14184224;2023-08-06T02:02:40;7.40;;;4.90;;
215;SDS011;70668;48.81286795;9.14184224;2023-08-06T02:05:09;6.40;;;5.00;;
215;SDS011;70668;48.81286795;9.14184224;2023-08-06T02:07:39;8.20;;;4.80;;
215;SDS011;70668;48.81286795;9.14184224;2023-08-06T02:10:07;7.63;;;4.83;;
215;SDS011;70668;48.81286795;9.14184224;2023-08-06T02:12:36;9.90;;;5.30;;
215;SDS011;70668;48.81286795;9.14184224;2023-08-06T02:15:07;7.07;;;4.40;;
215;SDS011;70668;48.81286795;9.14184224;2023-08-06T02:17:37;10.07;;;5.00;;
215;SDS011;70668;48.81286795;9.14184224;2023-08-06T02:20:06;6.27;;;4.57;;
215;SDS011;70668;48.81286795;9.14184224;2023-08-06T02:22:35;7.47;;;4.60;;
215;SDS011;70668;48.81286795;9.14184224;2023-08-06T02:25:04;11.97;;;4.70;;
215;SDS011;70668;48.81286795;9.14184224;2023-08-06T02:27:33;6.43;;;4.70;;
215;SDS011;70668;48.81286795;9.14184224;2023-08-06T02:30:01;10.17;;;4.50;;
215;SDS011;70668;48.81286795;9.14184224;2023-08-06T02:32:33;7.47;;;4.27;;
215;SDS011;70668;48.81286795;9.14184224;2023-08-06T02:35:02;10.33;;;5.13;;
215;SDS011;70668;48.81286795;9.14184224;2023-08-06T02:37:32;6.20;;;4.30;;
215;SDS011;70668;48.81286795;9.14184224;2023-08-06T02:40:01;11.47;;;4.70;;
215;SDS011;70668;48.81286795;9.14184224;2023-08-06T02:42:29;8.07;;;5.17;;
215;SDS011;70668;48.81286795;9.14184224;2023-08-06T02:44:58;8.50;;;4.87;;
215;SDS011;70668;48.81286795;9.14184224;2023-08-06T02:47:28;7.67;;;4.87;;
215;SDS011;70668;48.81286795;9.14184224;2023-08-06T02:49:59;10.77;;;5.30;;
215;SDS011;70668;48.81286795;9.14184224;2023-08-06T02:52:29;11.60;;;5.00;;
215;SDS011;70668;48.81286795;9.14184224;2023-08-06T02:54:57;11.13;;;5.07;;
215;SDS011;70668;48.81286795;9.14184224;2023-08-06T02:57:28;9.97;;;5.10;;
215;SDS011;70668;48.81286795;9.14184224;2023-08-06T02:59:57;11.57;;;5.40;;
215;SDS011;70668;48.81286795;9.14184224;2023-08-06T03:02:25;11.10;;;5.17;;
215;SDS011;70668;48.81286795;9.14184224;2023-08-06T03:05:23;8.30;;;4.60;;
215;SDS011;70668;48.81286795;9.14184224;2023-08-06T03:07:51;10.50;;;5.10;;
215;SDS011;70668;48.81286795;9.14184224;2023-08-06T03:10:24;8.63;;;4.73;;
215;SDS011;70668;48.81286795;9.14184224;2023-08-06T03:12:56;7.40;;;5.00;;
215;SDS011;70668;48.81286795;9.14184224;2023-08-06T03:15:24;7.80;;;4.97;;
215;SDS011;70668;48.81286795;9.14184224;2023-08-06T03:17:55;8.80;;;5.10;;
215;SDS011;70668;48.81286795;9.14184224;2023-08-06T03:20:27;8.30;;;5.10;;
215;SDS011;70668;48.81286795;9.14184224;2023-08-06T03:22:56;8.77;;;5.00;;
215;SDS011;70668;48.81286795;9.14184224;2023-08-06T03:25:24;12.20;;;4.70;;
215;SDS011;70668;48.81286795;9.14184224;2023-08-06T03:27:53;9.73;;;5.53;;
215;SDS011;70668;48.81286795;9.14184224;2023-08-06T03:30:21;8.20;;;5.20;;
215;SDS011;70668;48.81286795;9.14184224;2023-08-06T03:32:52;6.93;;;4.90;;
215;SDS011;70668;48.81286795;9.14184224;2023-08-06T03:35:21;6.90;;;4.70;;
215;SDS011;70668;48.81286795;9.14184224;2023-08-06T03:37:52;7.50;;;5.00;;
215;SDS011;70668;48.81286795;9.14184224;2023-08-06T03:40:21;13.20;;;5.23;;
215;SDS011;70668;48.81286795;9.14184224;2023-08-06T03:42:49;8.20;;;4.37;;
215;SDS011;70668;48.81286795;9.14184224;2023-08-06T03:45:18;9.70;;;4.97;;
215;SDS011;70668;48.81286795;9.14184224;2023-08-06T03:47:46;9.90;;;4.83;;
215;SDS011;70668;48.81286795;9.14184224;2023-08-06T03:50:15;8.83;;;4.47;;
215;SDS011;70668;48.81286795;9.14184224;2023-08-06T03:52:44;7.43;;;4.30;;
215;SDS011;70668;48.81286795;9.14184224;2023-08-06T03:55:15;7.70;;;4.63;;
215;SDS011;70668;48.81286795;9.14184224;2023-08-06T03:57:43;8.87;;;4.90;;
215;SDS011;70668;48.81286795;9.14184224;2023-08-06T04:00:12;10.83;;;4.63;;
215;SDS011;70668;48.81286795;9.14184224;2023-08-06T04:02:40;11.67;;;5.13;;
215;SDS011;70668;48.81286795;9.14184224;2023-08-06T04:05:12;8.23;;;4.77;;
215;SDS011;70668;48.81286795;9.14184224;2023-08-06T04:07:40;9.80;;;4.90;;
215;SDS011;70668;48.81286795;9.14184224;2023-08-06T04:10:09;11.13;;;4.00;;
215;SDS011;70668;48.81286795;9.14184224;2023-08-06T04:12:40;7.10;;;4.53;;
215;SDS011;70668;48.81286795;9.14184224;2023-08-06T04:15:09;7.87;;;4.90;;
215;SDS011;70668;48.81286795;9.14184224;2023-08-06T04:17:37;6.70;;;4.40;;
215;SDS011;70668;48.81286795;9.14184224;2023-08-06T04:20:06;8.50;;;4.17;;
215;SDS011;70668;48.81286795;9.14184224;2023-08-06T04:22:36;8.50;;;4.27;;
215;SDS011;70668;48.81286795;9.14184224;2023-08-06T04:25:05;8.93;;;4.13;;
215;SDS011;70668;48.81286795;9.14184224;2023-08-06T04:27:34;7.70;;;3.93;;
215;SDS011;70668;48.81286795;9.14184224;2023-08-06T04:30:10;6.47;;;3.70;;
215;SDS011;70668;48.81286795;9.14184224;2023-08-06T04:32:39;5.73;;;3.70;;
215;SDS011;70668;48.81286795;9.14184224;2023-08-06T04:35:07;6.83;;;3.73;;
215;SDS011;70668;48.81286795;9.14184224;2023-08-06T04:37:36;9.53;;;4.10;;
215;SDS011;70668;48.81286795;9.14184224;2023-08-06T04:40:06;8.83;;;4.30;;
215;SDS011;70668;48.81286795;9.14184224;2023-08-06T04:42:35;5.60;;;4.00;;
215;SDS011;70668;48.81286795;9.14184224;2023-08-06T04:45:04;7.40;;;4.03;;
215;SDS011;70668;48.81286795;9.14184224;2023-08-06T04:47:36;5.97;;;3.70;;
215;SDS011;70668;48.81286795;9.14184224;2023-08-06T04:50:05;8.20;;;4.20;;
215;SDS011;70668;48.81286795;9.14184224;2023-08-06T04:52:34;8.67;;;4.17;;
215;SDS011;70668;48.81286795;9.14184224;2023-08-06T04:55:02;5.73;;;3.30;;
215;SDS011;70668;48.81286795;9.14184224;2023-08-06T04:57:31;7.43;;;4.13;;
215;SDS011;70668;48.81286795;9.14184224;2023-08-06T04:59:59;7.10;;;3.90;;
215;SDS011;70668;48.81286795;9.14184224;2023-08-06T05:02:28;8.00;;;4.07;;
215;SDS011;70668;48.81286795;9.14184224;2023-08-06T05:05:00;7.43;;;4.20;;
215;SDS011;70668;48.81286795;9.14184224;2023-08-06T05:07:28;8.13;;;4.00;;
215;SDS011;70668;48.81286795;9.14184224;2023-08-06T05:09:56;8.27;;;4.20;;
215;SDS011;70668;48.81286795;9.14184224;2023-08-06T05:12:25;7.00;;;4.13;;
215;SDS011;70668;48.81286795;9.14184224;2023-08-06T05:14:53;6.20;;;3.73;;
215;SDS011;70668;48.81286795;9.14184224;2023-08-06T05:17:22;6.20;;;3.47;;
215;SDS011;70668;48.81286795;9.14184224;2023-08-06T05:19:50;8.77;;;3.90;;
215;SDS011;70668;48.81286795;9.14184224;2023-08-06T05:22:21;6.73;;;3.83;;
215;SDS011;70668;48.81286795;9.14184224;2023-08-06T05:24:49;7.20;;;3.67;;
215;SDS011;70668;48.81286795;9.14184224;2023-08-06T05:27:18;7.37;;;3.50;;
215;SDS011;70668;48.81286795;9.14184224;2023-08-06T05:29:47;6.23;;;3.50;;
215;SDS011;70668;48.81286795;9.14184224;2023-08-06T05:32:16;6.20;;;3.10;;
215;SDS011;70668;48.81286795;9.14184224;2023-08-06T05:34:44;5.97;;;3.17;;
215;SDS011;70668;48.81286795;9.14184224;2023-08-06T05:37:12;5.07;;;3.00;;
215;SDS011;70668;48.81286795;9.14184224;2023-08-06T05:39:43;5.20;;;2.87;;
215;SDS011;70668;48.81286795;9.14184224;2023-08-06T05:42:12;5.60;;;3.30;;
215;SDS011;70668;48.81286795;9.14184224;2023-08-06T05:44:40;4.30;;;2.70;;
215;SDS011;70668;48.81286795;9.14184224;2023-08-06T05:47:09;7.07;;;2.60;;
215;SDS011;70668;48.81286795;9.14184224;2023-08-06T05:49:37;4.60;;;2.40;;
215;SDS011;70668;48.81286795;9.14184224;2023-08-06T05:52:06;4.80;;;2.50;;
215;SDS011;70668;48.81286795;9.14184224;2023-08-06T05:54:34;3.80;;;2.27;;
215;SDS011;70668;48.81286795;9.14184224;2023-08-06T05:57:06;6.57;;;2.07;;
215;SDS011;70668;48.81286795;9.14184224;2023-08-06T05:59:34;4.90;;;2.30;;
215;SDS011;70668;48.81286795;9.14184224;2023-08-06T06:02:03;6.83;;;1.90;;
215;SDS011;70668;48.81286795;9.14184224;2023-08-06T06:04:32;5.30;;;2.17;;
215;SDS011;70668;48.81286795;9.14184224;2023-08-06T06:07:00;6.23;;;2.10;;
215;SDS011;70668;48.81286795;9.14184224;2023-08-06T06:09:28;4.67;;;2.10;;
215;SDS011;70668;48.81286795;9.14184224;2023-08-06T06:11:57;3.60;;;1.90;;
215;SDS011;70668;48.81286795;9.14184224;2023-08-06T06:14:28;3.27;;;1.70;;
215;SDS011;70668;48.81286795;9.14184224;2023-08-06T06:16:56;3.33;;;1.80;;
215;SDS011;70668;48.81286795;9.14184224;2023-08-06T06:19:25;5.23;;;2.00;;
215;SDS011;70668;48.81286795;9.14184224;2023-08-06T06:21:53;5.27;;;1.80;;
215;SDS011;70668;48.81286795;9.14184224;2023-08-06T06:24:22;5.17;;;1.80;;
215;SDS011;70668;48.81286795;9.14184224;2023-08-06T06:26:51;4.83;;;1.60;;
215;SDS011;70668;48.81286795;9.14184224;2023-08-06T06:29:19;3.10;;;1.60;;
215;SDS011;70668;48.81286795;9.14184224;2023-08-06T06:31:50;4.20;;;1.60;;
215;SDS011;70668;48.81286795;9.14184224;2023-08-06T06:34:19;5.53;;;1.80;;
215;SDS011;70668;48.81286795;9.14184224;2023-08-06T06:36:47;2.93;;;1.60;;
215;SDS011;70668;48.81286795;9.14184224;2023-08-06T06:39:15;4.50;;;1.70;;
215;SDS011;70668;48.81286795;9.14184224;2023-08-06T06:41:44;2.50;;;1.50;;
215;SDS011;70668;48.81286795;9.14184224;2023-08-06T06:44:22;3.60;;;1.70;;
215;SDS011;70668;48.81286795;9.14184224;2023-08-06T06:46:53;4.20;;;1.50;;
215;SDS011;70668;48.81286795;9.14184224;2023-08-06T06:49:21;3.10;;;1.70;;
215;SDS011;70668;48.81286795;9.14184224;2023-08-06T06:51:50;5.10;;;1.60;;
215;SDS011;70668;48.81286795;9.14184224;2023-08-06T06:54:18;3.30;;;1.53;;
215;SDS011;70668;48.81286795;9.14184224;2023-08-06T06:56:47;4.30;;;1.40;;
215;SDS011;70668;48.81286795;9.14184224;2023-08-06T06:59:15;4.60;;;1.50;;
215;SDS011;70668;48.81286795;9.14184224;2023-08-06T07:01:44;4.13;;;1.67;;
215;SDS011;70668;48.81286795;9.14184224;2023-08-06T07:04:14;4.60;;;1.40;;
215;SDS011;70668;48.81286795;9.14184224;2023-08-06T07:06:43;4.07;;;1.53;;
215;SDS011;70668;48.81286795;9.14184224;2023-08-06T07:09:11;2.73;;;1.47;;
215;SDS011;70668;48.81286795;9.14184224;2023-08-06T07:11:40;2.70;;;1.40;;
215;SDS011;70668;48.81286795;9.14184224;2023-08-06T07:14:09;2.53;;;1.60;;
215;SDS011;70668;48.81286795;9.14184224;2023-08-06T07:16:37;3.73;;;1.50;;
215;SDS011;70668;48.81286795;9.14184224;2023-08-06T07:19:06;3.90;;;1.60;;
215;SDS011;70668;48.81286795;9.14184224;2023-08-06T07:21:37;2.97;;;1.50;;
215;SDS011;70668;48.81286795;9.14184224;2023-08-06T07:24:05;3.60;;;1.67;;
215;SDS011;70668;48.81286795;9.14184224;2023-08-06T07:26:33;4.20;;;1.50;;
215;SDS011;70668;48.81286795;9.14184224;2023-08-06T07:29:02;4.87;;;1.40;;
215;SDS011;70668;48.81286795;9.14184224;2023-08-06T07:31:30;2.60;;;1.50;;
215;SDS011;70668;48.81286795;9.14184224;2023-08-06T07:33:59;3.30;;;1.40;;
215;SDS011;70668;48.81286795;9.14184224;2023-08-06T07:36:27;3.67;;;1.40;;
215;SDS011;70668;48.81286795;9.14184224;2023-08-06T07:38:58;3.40;;;1.40;;
215;SDS011;70668;48.81286795;9.14184224;2023-08-06T07:41:27;4.20;;;1.50;;
215;SDS011;70668;48.81286795;9.14184224;2023-08-06T07:43:55;4.20;;;1.30;;
215;SDS011;70668;48.81286795;9.14184224;2023-08-06T07:46:23;3.03;;;1.40;;
215;SDS011;70668;48.81286795;9.14184224;2023-08-06T07:48:52;2.50;;;1.30;;
215;SDS011;70668;48.81286795;9.14184224;2023-08-06T07:51:20;2.67;;;1.40;;
215;SDS011;70668;48.81286795;9.14184224;2023-08-06T07:53:49;3.83;;;1.40;;
215;SDS011;70668;48.81286795;9.14184224;2023-08-06T07:56:20;3.40;;;1.40;;
215;SDS011;70668;48.81286795;9.14184224;2023-08-06T07:58:48;2.28;;;1.33;;
215;SDS011;70668;48.81286795;9.14184224;2023-08-06T08:01:16;2.53;;;1.37;;
215;SDS011;70668;48.81286795;9.14184224;2023-08-06T08:03:45;3.23;;;1.20;;
215;SDS011;70668;48.81286795;9.14184224;2023-08-06T08:06:13;3.60;;;1.30;;
215;SDS011;70668;48.81286795;9.14184224;2023-08-06T08:08:41;2.40;;;1.30;;
215;SDS011;70668;48.81286795;9.14184224;2023-08-06T08:11:10;3.00;;;1.40;;
215;SDS011;70668;48.81286795;9.14184224;2023-08-06T08:13:42;2.50;;;1.23;;
215;SDS011;70668;48.81286795;9.14184224;2023-08-06T08:16:10;2.20;;;1.10;;
215;SDS011;70668;48.81286795;9.14184224;2023-08-06T08:18:38;2.20;;;1.20;;
215;SDS011;70668;48.81286795;9.14184224;2023-08-06T08:21:07;4.83;;;1.40;;
215;SDS011;70668;48.81286795;9.14184224;2023-08-06T08:23:35;2.10;;;1.20;;
215;SDS011;70668;48.81286795;9.14184224;2023-08-06T08:26:04;3.27;;;1.33;;
215;SDS011;70668;48.81286795;9.14184224;2023-08-06T08:28:32;2.07;;;1.07;;
215;SDS011;70668;48.81286795;9.14184224;2023-08-06T08:31:03;3.30;;;1.30;;
215;SDS011;70668;48.81286795;9.14184224;2023-08-06T08:33:36;2.30;;;1.10;;
215;SDS011;70668;48.81286795;9.14184224;2023-08-06T08:36:05;2.00;;;1.07;;
215;SDS011;70668;48.81286795;9.14184224;2023-08-06T08:38:35;2.10;;;1.10;;
215;SDS011;70668;48.81286795;9.14184224;2023-08-06T08:41:03;2.40;;;1.10;;
215;SDS011;70668;48.81286795;9.14184224;2023-08-06T08:43:31;2.00;;;1.07;;
215;SDS011;70668;48.81286795;9.14184224;2023-08-06T08:46:00;2.17;;;1.00;;
215;SDS011;70668;48.81286795;9.14184224;2023-08-06T08:48:32;2.03;;;1.03;;
215;SDS011;70668;48.81286795;9.14184224;2023-08-06T08:51:01;2.00;;;1.07;;
215;SDS011;70668;48.81286795;9.14184224;2023-08-06T08:53:30;2.00;;;1.10;;
215;SDS011;70668;48.81286795;9.14184224;2023-08-06T08:55:59;1.90;;;1.00;;
215;SDS011;70668;48.81286795;9.14184224;2023-08-06T08:58:28;2.17;;;1.03;;
215;SDS011;70668;48.81286795;9.14184224;2023-08-06T09:00:56;2.20;;;1.00;;
215;SDS011;70668;48.81286795;9.14184224;2023-08-06T09:03:28;2.10;;;1.00;;
215;SDS011;70668;48.81286795;9.14184224;2023-08-06T09:05:56;2.30;;;1.00;;
215;SDS011;70668;48.81286795;9.14184224;2023-08-06T09:08:27;2.00;;;1.10;;
215;SDS011;70668;48.81286795;9.14184224;2023-08-06T09:10:57;2.10;;;1.00;;
215;SDS011;70668;48.81286795;9.14184224;2023-08-06T09:13:26;2.00;;;1.10;;
215;SDS011;70668;48.81286795;9.14184224;2023-08-06T09:15:54;2.10;;;0.97;;
215;SDS011;70668;48.81286795;9.14184224;2023-08-06T09:18:28;2.00;;;1.00;;
215;SDS011;70668;48.81286795;9.14184224;2023-08-06T09:20:57;2.53;;;1.00;;
215;SDS011;70668;48.81286795;9.14184224;2023-08-06T09:23:29;2.00;;;1.10;;
215;SDS011;70668;48.81286795;9.14184224;2023-08-06T09:25:59;1.90;;;1.00;;
215;SDS011;70668;48.81286795;9.14184224;2023-08-06T09:28:36;2.50;;;1.10;;
215;SDS011;70668;48.81286795;9.14184224;2023-08-06T09:31:07;2.20;;;1.07;;
215;SDS011;70668;48.81286795;9.14184224;2023-08-06T09:33:39;2.00;;;1.10;;
215;SDS011;70668;48.81286795;9.14184224;2023-08-06T09:36:09;1.93;;;1.00;;
215;SDS011;70668;48.81286795;9.14184224;2023-08-06T09:38:38;3.63;;;1.00;;
215;SDS011;70668;48.81286795;9.14184224;2023-08-06T09:41:07;2.17;;;1.10;;
215;SDS011;70668;48.81286795;9.14184224;2023-08-06T09:43:40;2.57;;;1.10;;
215;SDS011;70668;48.81286795;9.14184224;2023-08-06T09:46:12;2.90;;;1.00;;
215;SDS011;70668;48.81286795;9.14184224;2023-08-06T09:48:46;1.80;;;1.00;;
215;SDS011;70668;48.81286795;9.14184224;2023-08-06T09:51:15;2.10;;;1.10;;
215;SDS011;70668;48.81286795;9.14184224;2023-08-06T09:53:45;2.20;;;1.10;;
215;SDS011;70668;48.81286795;9.14184224;2023-08-06T09:56:16;2.10;;;1.00;;
215;SDS011;70668;48.81286795;9.14184224;2023-08-06T09:58:45;1.87;;;1.07;;
215;SDS011;70668;48.81286795;9.14184224;2023-08-06T10:01:15;2.07;;;1.10;;
215;SDS011;70668;48.81286795;9.14184224;2023-08-06T10:03:47;3.47;;;1.27;;
215;SDS011;70668;48.81286795;9.14184224;2023-08-06T10:06:15;2.20;;;1.20;;
215;SDS011;70668;48.81286795;9.14184224;2023-08-06T10:08:44;2.33;;;1.23;;
215;SDS011;70668;48.81286795;9.14184224;2023-08-06T10:11:13;2.30;;;1.20;;
215;SDS011;70668;48.81286795;9.14184224;2023-08-06T10:13:42;2.00;;;1.10;;
215;SDS011;70668;48.81286795;9.14184224;2023-08-06T10:16:11;2.40;;;1.10;;
215;SDS011;70668;48.81286795;9.14184224;2023-08-06T10:18:40;2.80;;;1.00;;
215;SDS011;70668;48.81286795;9.14184224;2023-08-06T10:21:11;2.20;;;1.00;;
215;SDS011;70668;48.81286795;9.14184224;2023-08-06T10:23:41;2.00;;;1.10;;
215;SDS011;70668;48.81286795;9.14184224;2023-08-06T10:26:09;2.07;;;1.00;;
215;SDS011;70668;48.81286795;9.14184224;2023-08-06T10:28:41;2.10;;;1.10;;
215;SDS011;70668;48.81286795;9.14184224;2023-08-06T10:31:09;2.40;;;1.00;;
215;SDS011;70668;48.81286795;9.14184224;2023-08-06T10:33:42;4.93;;;1.20;;
215;SDS011;70668;48.81286795;9.14184224;2023-08-06T10:36:14;1.93;;;1.07;;
215;SDS011;70668;48.81286795;9.14184224;2023-08-06T10:38:46;1.90;;;1.00;;
215;SDS011;70668;48.81286795;9.14184224;2023-08-06T10:41:16;2.00;;;1.00;;
215;SDS011;70668;48.81286795;9.14184224;2023-08-06T10:43:45;2.70;;;1.27;;
215;SDS011;70668;48.81286795;9.14184224;2023-08-06T10:46:23;3.07;;;1.20;;
215;SDS011;70668;48.81286795;9.14184224;2023-08-06T10:48:54;2.20;;;1.10;;
215;SDS011;70668;48.81286795;9.14184224;2023-08-06T10:51:25;2.10;;;1.00;;
215;SDS011;70668;48.81286795;9.14184224;2023-08-06T10:53:54;4.37;;;1.30;;
215;SDS011;70668;48.81286795;9.14184224;2023-08-06T10:56:24;2.13;;;1.10;;
215;SDS011;70668;48.81286795;9.14184224;2023-08-06T10:58:54;2.70;;;1.27;;
215;SDS011;70668;48.81286795;9.14184224;2023-08-06T11:01:23;1.93;;;1.10;;
215;SDS011;70668;48.81286795;9.14184224;2023-08-06T11:03:52;2.10;;;1.10;;
215;SDS011;70668;48.81286795;9.14184224;2023-08-06T11:06:21;2.90;;;1.30;;
215;SDS011;70668;48.81286795;9.14184224;2023-08-06T11:08:54;2.60;;;1.40;;
215;SDS011;70668;48.81286795;9.14184224;2023-08-06T11:11:23;2.23;;;1.30;;
215;SDS011;70668;48.81286795;9.14184224;2023-08-06T11:13:51;2.77;;;1.50;;
215;SDS011;70668;48.81286795;9.14184224;2023-08-06T11:16:20;2.43;;;1.40;;
215;SDS011;70668;48.81286795;9.14184224;2023-08-06T11:18:50;2.40;;;1.47;;
215;SDS011;70668;48.81286795;9.14184224;2023-08-06T11:21:30;3.30;;;1.60;;
215;SDS011;70668;48.81286795;9.14184224;2023-08-06T11:23:58;6.60;;;1.63;;
215;SDS011;70668;48.81286795;9.14184224;2023-08-06T11:26:27;3.20;;;1.63;;
215;SDS011;70668;48.81286795;9.14184224;2023-08-06T11:28:56;3.07;;;1.67;;
215;SDS011;70668;48.81286795;9.14184224;2023-08-06T11:31:24;3.20;;;1.80;;
215;SDS011;70668;48.81286795;9.14184224;2023-08-06T11:33:53;3.33;;;1.97;;
215;SDS011;70668;48.81286795;9.14184224;2023-08-06T11:36:33;3.10;;;1.90;;
215;SDS011;70668;48.81286795;9.14184224;2023-08-06T11:39:03;4.37;;;2.10;;
215;SDS011;70668;48.81286795;9.14184224;2023-08-06T11:41:32;6.53;;;1.97;;
215;SDS011;70668;48.81286795;9.14184224;2023-08-06T11:44:01;5.03;;;2.17;;
215;SDS011;70668;48.81286795;9.14184224;2023-08-06T11:46:30;5.20;;;2.30;;
215;SDS011;70668;48.81286795;9.14184224;2023-08-06T11:49:17;5.33;;;2.20;;
215;SDS011;70668;48.81286795;9.14184224;2023-08-06T11:51:52;3.53;;;2.07;;
215;SDS011;70668;48.81286795;9.14184224;2023-08-06T11:54:30;3.90;;;2.30;;
215;SDS011;70668;48.81286795;9.14184224;2023-08-06T11:56:59;4.80;;;2.57;;
215;SDS011;70668;48.81286795;9.14184224;2023-08-06T11:59:27;12.93;;;2.77;;
215;SDS011;70668;48.81286795;9.14184224;2023-08-06T12:01:56;4.93;;;2.70;;
215;SDS011;70668;48.81286795;9.14184224;2023-08-06T12:04:24;5.67;;;2.80;;
215;SDS011;70668;48.81286795;9.14184224;2023-08-06T12:06:55;7.20;;;2.83;;
215;SDS011;70668;48.81286795;9.14184224;2023-08-06T12:09:33;5.00;;;2.73;;
215;SDS011;70668;48.81286795;9.14184224;2023-08-06T12:12:01;5.77;;;2.93;;
215;SDS011;70668;48.81286795;9.14184224;2023-08-06T12:14:31;5.53;;;2.90;;
215;SDS011;70668;48.81286795;9.14184224;2023-08-06T12:16:59;4.27;;;2.60;;
215;SDS011;70668;48.81286795;9.14184224;2023-08-06T12:19:28;7.20;;;2.80;;
215;SDS011;70668;48.81286795;9.14184224;2023-08-06T12:21:59;5.63;;;2.90;;
215;SDS011;70668;48.81286795;9.14184224;2023-08-06T12:24:28;6.03;;;2.80;;
215;SDS011;70668;48.81286795;9.14184224;2023-08-06T12:26:57;5.60;;;3.00;;
215;SDS011;70668;48.81286795;9.14184224;2023-08-06T12:29:27;7.70;;;3.30;;
215;SDS011;70668;48.81286795;9.14184224;2023-08-06T12:31:56;6.63;;;2.80;;
215;SDS011;70668;48.81286795;9.14184224;2023-08-06T12:34:24;3.90;;;2.53;;
215;SDS011;70668;48.81286795;9.14184224;2023-08-06T12:36:53;5.37;;;2.57;;
215;SDS011;70668;48.81286795;9.14184224;2023-08-06T12:39:24;6.47;;;2.70;;
215;SDS011;70668;48.81286795;9.14184224;2023-08-06T12:41:54;6.27;;;2.60;;
215;SDS011;70668;48.81286795;9.14184224;2023-08-06T12:44:22;4.77;;;2.63;;
215;SDS011;70668;48.81286795;9.14184224;2023-08-06T12:46:51;3.93;;;2.20;;
215;SDS011;70668;48.81286795;9.14184224;2023-08-06T12:49:19;5.60;;;2.97;;
215;SDS011;70668;48.81286795;9.14184224;2023-08-06T12:51:49;4.17;;;2.40;;
215;SDS011;70668;48.81286795;9.14184224;2023-08-06T12:54:18;3.00;;;1.80;;
215;SDS011;70668;48.81286795;9.14184224;2023-08-06T12:56:50;4.50;;;2.20;;
215;SDS011;70668;48.81286795;9.14184224;2023-08-06T12:59:18;2.90;;;1.80;;
215;SDS011;70668;48.81286795;9.14184224;2023-08-06T13:01:47;3.93;;;2.00;;
215;SDS011;70668;48.81286795;9.14184224;2023-08-06T13:04:15;3.40;;;1.87;;
215;SDS011;70668;48.81286795;9.14184224;2023-08-06T13:06:44;4.20;;;1.97;;
215;SDS011;70668;48.81286795;9.14184224;2023-08-06T13:09:12;3.20;;;2.00;;
215;SDS011;70668;48.81286795;9.14184224;2023-08-06T13:11:41;4.00;;;2.20;;
215;SDS011;70668;48.81286795;9.14184224;2023-08-06T13:14:14;4.17;;;1.90;;
215;SDS011;70668;48.81286795;9.14184224;2023-08-06T13:16:43;4.77;;;2.03;;
215;SDS011;70668;48.81286795;9.14184224;2023-08-06T13:19:11;5.50;;;2.13;;
215;SDS011;70668;48.81286795;9.14184224;2023-08-06T13:24:27;3.27;;;1.93;;